createdAt,value
2018-02-11T00:00:56.582Z,90.74
2018-02-11T00:03:25.005Z,91.06
2018-02-11T00:05:53.357Z,90.78
2018-02-11T00:08:21.706Z,90.97
2018-02-11T00:10:50.137Z,91.16
2018-02-11T00:13:18.469Z,90.77
2018-02-11T00:15:46.813Z,90.94
2018-02-11T00:18:15.164Z,90.82
2018-02-11T00:20:43.546Z,90.70
2018-02-11T00:23:11.873Z,90.32
2018-02-11T00:25:40.231Z,89.93
2018-02-11T00:28:08.565Z,89.82
2018-02-11T00:30:36.889Z,89.36
2018-02-11T00:33:05.237Z,89.27
2018-02-11T00:35:34.424Z,88.94
2018-02-11T00:38:08.509Z,88.94
2018-02-11T00:40:36.847Z,88.86
2018-02-11T00:43:05.181Z,88.62
2018-02-11T00:45:33.563Z,88.43
2018-02-11T00:48:01.941Z,88.45
2018-02-11T00:50:30.318Z,88.40
2018-02-11T00:52:58.665Z,88.47
2018-02-11T00:55:26.989Z,88.32
2018-02-11T00:57:55.337Z,87.99
2018-02-11T01:00:23.725Z,88.11
2018-02-11T01:02:52.065Z,87.87
2018-02-11T01:05:20.477Z,87.57
2018-02-11T01:07:48.825Z,87.51
2018-02-11T01:10:17.146Z,87.65
2018-02-11T01:12:45.466Z,88.07
2018-02-11T01:15:13.805Z,87.58
2018-02-11T01:17:42.125Z,87.37
2018-02-11T01:20:10.469Z,87.15
2018-02-11T01:22:38.809Z,86.68
2018-02-11T01:25:07.185Z,86.60
2018-02-11T01:27:35.584Z,85.95
2018-02-11T01:30:03.910Z,85.62
2018-02-11T01:32:32.343Z,84.94
2018-02-11T01:35:00.680Z,84.87
2018-02-11T01:37:29.068Z,85.10
2018-02-11T01:39:57.416Z,84.97
2018-02-11T01:42:25.717Z,85.05
2018-02-11T01:44:59.749Z,84.80
2018-02-11T01:47:28.065Z,84.95
2018-02-11T01:50:08.360Z,84.70
2018-02-11T01:52:36.681Z,84.58
2018-02-11T01:55:05.121Z,84.90
2018-02-11T01:57:33.432Z,84.83
2018-02-11T02:00:01.752Z,84.59
2018-02-11T02:02:30.097Z,84.53
2018-02-11T02:04:58.393Z,84.25
2018-02-11T02:07:26.729Z,84.27
2018-02-11T02:09:55.037Z,83.97
2018-02-11T02:12:23.369Z,83.98
2018-02-11T02:14:51.677Z,83.61
2018-02-11T02:17:20.018Z,83.05
2018-02-11T02:19:48.321Z,82.96
2018-02-11T02:22:16.653Z,82.63
2018-02-11T02:24:44.960Z,82.59
2018-02-11T02:27:13.305Z,82.43
2018-02-11T02:29:41.625Z,82.03
2018-02-11T02:32:09.956Z,82.22
2018-02-11T02:34:38.338Z,81.80
2018-02-11T02:37:06.710Z,80.85
2018-02-11T02:39:35.046Z,81.28
2018-02-11T02:42:03.357Z,81.35
2018-02-11T02:44:31.746Z,80.80
2018-02-11T02:47:00.054Z,80.22
2018-02-11T02:49:28.428Z,80.30
2018-02-11T02:51:56.732Z,79.99
2018-02-11T02:54:25.150Z,80.48
2018-02-11T02:56:53.463Z,79.87
2018-02-11T02:59:21.857Z,79.57
2018-02-11T03:01:50.173Z,79.33
2018-02-11T03:04:18.505Z,78.98
2018-02-11T03:06:46.829Z,78.61
2018-02-11T03:09:15.161Z,78.24
2018-02-11T03:11:43.469Z,77.59
2018-02-11T03:14:11.800Z,77.85
2018-02-11T03:16:40.229Z,77.67
2018-02-11T03:19:08.539Z,76.71
2018-02-11T03:21:36.874Z,76.56
2018-02-11T03:24:05.181Z,76.60
2018-02-11T03:26:33.596Z,76.61
2018-02-11T03:29:01.849Z,76.47
2018-02-11T03:31:30.198Z,76.56
2018-02-11T03:33:58.569Z,76.67
2018-02-11T03:36:26.903Z,76.54
2018-02-11T03:38:55.249Z,76.83
2018-02-11T03:41:23.605Z,77.21
2018-02-11T03:43:51.956Z,77.15
2018-02-11T03:46:20.382Z,77.26
2018-02-11T03:48:48.722Z,77.32
2018-02-11T03:51:17.119Z,77.47
2018-02-11T03:53:45.429Z,78.65
2018-02-11T03:56:13.749Z,77.21
2018-02-11T03:58:42.106Z,77.31
2018-02-11T04:01:10.521Z,78.14
2018-02-11T04:03:38.882Z,78.90
2018-02-11T04:06:07.394Z,79.44
2018-02-11T04:08:35.752Z,79.75
2018-02-11T04:11:04.163Z,79.58
2018-02-11T04:13:32.506Z,79.45
2018-02-11T04:16:00.809Z,79.46
2018-02-11T04:18:29.140Z,78.75
2018-02-11T04:20:57.457Z,78.61
2018-02-11T04:23:25.787Z,78.09
2018-02-11T04:25:54.184Z,78.62
2018-02-11T04:28:22.561Z,78.68
2018-02-11T04:30:50.933Z,78.86
2018-02-11T04:33:19.362Z,78.64
2018-02-11T04:35:47.699Z,79.10
2018-02-11T04:38:16.006Z,79.00
2018-02-11T04:40:44.341Z,79.39
2018-02-11T04:43:12.717Z,79.59
2018-02-11T04:45:41.058Z,79.80
2018-02-11T04:48:09.365Z,79.31
2018-02-11T04:50:37.692Z,79.67
2018-02-11T04:53:05.997Z,79.96
2018-02-11T04:55:34.328Z,79.37
2018-02-11T04:58:02.681Z,80.29
2018-02-11T05:00:31.008Z,80.39
2018-02-11T05:02:59.330Z,80.18
2018-02-11T05:05:27.661Z,80.13
2018-02-11T05:07:56.085Z,80.29
2018-02-11T05:10:24.473Z,80.28
2018-02-11T05:12:52.847Z,80.23
2018-02-11T05:15:21.213Z,81.02
2018-02-11T05:17:49.522Z,81.79
2018-02-11T05:20:17.857Z,82.26
2018-02-11T05:22:46.240Z,83.30
2018-02-11T05:25:14.560Z,83.56
2018-02-11T05:27:42.898Z,84.03
2018-02-11T05:30:11.215Z,83.63
2018-02-11T05:32:39.653Z,84.24
2018-02-11T05:35:07.974Z,84.52
2018-02-11T05:37:36.308Z,84.65
2018-02-11T05:40:04.613Z,84.96
2018-02-11T05:42:32.945Z,85.28
2018-02-11T05:45:01.331Z,85.50
2018-02-11T05:47:29.657Z,86.29
2018-02-11T05:49:57.974Z,87.29
2018-02-11T05:52:26.309Z,87.36
2018-02-11T05:54:54.641Z,87.03
2018-02-11T05:57:23.021Z,87.46
2018-02-11T05:59:51.329Z,87.63
2018-02-11T06:02:19.665Z,87.18
2018-02-11T06:04:48.053Z,86.94
2018-02-11T06:07:16.429Z,86.70
2018-02-11T06:09:44.733Z,86.13
2018-02-11T06:12:13.057Z,85.92
2018-02-11T06:14:41.449Z,86.35
2018-02-11T06:17:09.830Z,86.26
2018-02-11T06:19:38.212Z,86.83
2018-02-11T06:22:06.518Z,87.68
2018-02-11T06:24:34.849Z,88.11
2018-02-11T06:27:03.157Z,88.34
2018-02-11T06:29:31.486Z,88.52
2018-02-11T06:31:59.890Z,88.50
2018-02-11T06:34:28.226Z,88.21
2018-02-11T06:36:56.533Z,88.75
2018-02-11T06:39:24.865Z,89.53
2018-02-11T06:41:53.176Z,89.69
2018-02-11T06:44:21.565Z,90.08
2018-02-11T06:46:49.945Z,90.00
2018-02-11T06:49:18.321Z,90.38
2018-02-11T06:51:46.701Z,90.49
2018-02-11T06:54:15.034Z,91.21
2018-02-11T06:56:43.340Z,91.71
2018-02-11T06:59:11.729Z,91.91
2018-02-11T07:01:40.104Z,92.23
2018-02-11T07:04:08.438Z,92.03
2018-02-11T07:06:36.745Z,92.07
2018-02-11T07:09:05.054Z,91.99
2018-02-11T07:11:33.390Z,92.18
2018-02-11T07:14:01.780Z,92.06
2018-02-11T07:16:30.172Z,92.56
2018-02-11T07:18:58.541Z,92.76
2018-02-11T07:21:26.869Z,92.80
2018-02-11T07:23:55.198Z,92.84
2018-02-11T07:26:23.534Z,93.06
2018-02-11T07:28:51.958Z,93.54
2018-02-11T07:31:20.330Z,93.61
2018-02-11T07:33:48.645Z,93.41
2018-02-11T07:36:17.081Z,93.38
2018-02-11T07:38:45.471Z,93.49
2018-02-11T07:41:13.801Z,93.89
2018-02-11T07:43:42.110Z,94.20
2018-02-11T07:46:10.443Z,94.49
2018-02-11T07:48:38.753Z,94.77
2018-02-11T07:51:07.095Z,94.99
2018-02-11T07:53:35.422Z,95.17
2018-02-11T07:56:03.794Z,95.40
2018-02-11T07:58:32.165Z,95.35
2018-02-11T08:01:01.015Z,95.41
2018-02-11T08:03:29.920Z,95.31
2018-02-11T08:05:58.226Z,95.38
2018-02-11T08:08:27.433Z,95.38
2018-02-11T08:10:56.318Z,95.41
2018-02-11T08:13:24.681Z,95.40
2018-02-11T08:15:53.937Z,95.63
2018-02-11T08:18:22.654Z,95.72
2018-02-11T08:20:51.049Z,95.76
2018-02-11T08:23:19.381Z,95.89
2018-02-11T08:25:47.716Z,95.87
2018-02-11T08:28:16.077Z,95.88
2018-02-11T08:30:44.457Z,95.77
2018-02-11T08:33:12.836Z,95.79
2018-02-11T08:35:41.269Z,95.43
2018-02-11T08:38:10.358Z,95.53
2018-02-11T08:40:38.672Z,95.48
2018-02-11T08:43:07.059Z,95.39
2018-02-11T08:45:35.393Z,95.37
2018-02-11T08:48:03.815Z,95.49
2018-02-11T08:50:32.198Z,95.43
2018-02-11T08:53:00.506Z,95.16
2018-02-11T08:55:28.949Z,95.15
2018-02-11T08:57:57.365Z,95.28
2018-02-11T09:00:25.693Z,95.50
2018-02-11T09:02:54.002Z,95.41
2018-02-11T09:05:22.457Z,95.32
2018-02-11T09:07:50.829Z,95.50
2018-02-11T09:10:19.258Z,95.51
2018-02-11T09:12:47.609Z,95.65
2018-02-11T09:15:15.922Z,96.25
2018-02-11T09:17:44.238Z,96.57
2018-02-11T09:20:12.569Z,96.49
2018-02-11T09:22:40.881Z,95.98
2018-02-11T09:25:09.262Z,95.77
2018-02-11T09:27:37.573Z,95.95
2018-02-11T09:30:05.904Z,95.91
2018-02-11T09:32:34.209Z,95.84
2018-02-11T09:35:02.578Z,95.94
2018-02-11T09:37:30.907Z,96.24
2018-02-11T09:39:59.214Z,96.38
2018-02-11T09:42:27.550Z,96.25
2018-02-11T09:44:55.857Z,96.30
2018-02-11T09:47:24.181Z,96.00
2018-02-11T09:49:52.489Z,95.90
2018-02-11T09:52:20.858Z,95.83
2018-02-11T09:54:49.173Z,95.62
2018-02-11T09:57:17.517Z,95.27
2018-02-11T09:59:45.825Z,95.17
2018-02-11T10:02:14.229Z,94.97
2018-02-11T10:04:42.541Z,94.93
2018-02-11T10:07:15.056Z,94.91
2018-02-11T10:09:43.532Z,94.86
2018-02-11T10:12:11.913Z,94.69
2018-02-11T10:14:40.293Z,94.93
2018-02-11T10:17:08.602Z,95.04
2018-02-11T10:19:36.947Z,94.85
2018-02-11T10:22:05.322Z,94.29
2018-02-11T10:24:33.693Z,94.12
2018-02-11T10:27:02.006Z,94.29
2018-02-11T10:29:30.344Z,93.94
2018-02-11T10:31:58.666Z,94.32
2018-02-11T10:34:26.993Z,94.14
2018-02-11T10:36:56.021Z,94.02
2018-02-11T10:39:24.357Z,93.95
2018-02-11T10:41:52.672Z,93.82
2018-02-11T10:44:21.006Z,94.10
2018-02-11T10:46:49.309Z,94.33
2018-02-11T10:49:17.694Z,93.73
2018-02-11T10:51:45.999Z,93.53
2018-02-11T10:54:14.330Z,93.66
2018-02-11T10:56:42.841Z,93.71
2018-02-11T10:59:11.161Z,93.22
2018-02-11T11:01:39.512Z,93.36
2018-02-11T11:04:07.833Z,93.62
2018-02-11T11:06:36.150Z,93.69
2018-02-11T11:09:04.461Z,93.58
2018-02-11T11:11:32.788Z,93.15
2018-02-11T11:14:01.105Z,92.82
2018-02-11T11:16:29.513Z,92.77
2018-02-11T11:18:57.834Z,92.86
2018-02-11T11:21:26.326Z,92.48
2018-02-11T11:23:54.806Z,92.19
2018-02-11T11:26:23.151Z,92.44
2018-02-11T11:28:51.511Z,92.41
2018-02-11T11:31:19.874Z,92.34
2018-02-11T11:33:48.186Z,92.46
2018-02-11T11:36:17.429Z,92.12
2018-02-11T11:38:45.868Z,92.29
2018-02-11T11:41:14.194Z,92.37
2018-02-11T11:43:42.532Z,92.15
2018-02-11T11:46:10.893Z,91.96
2018-02-11T11:48:39.198Z,91.91
2018-02-11T11:51:07.545Z,91.79
2018-02-11T11:53:35.898Z,91.90
2018-02-11T11:56:05.142Z,92.14
2018-02-11T11:58:33.460Z,92.37
2018-02-11T12:01:01.849Z,92.38
2018-02-11T12:03:30.239Z,92.16
2018-02-11T12:05:58.533Z,92.00
2018-02-11T12:08:26.974Z,92.21
2018-02-11T12:10:55.345Z,91.89
2018-02-11T12:13:24.125Z,91.39
2018-02-11T12:15:52.817Z,90.88
2018-02-11T12:18:21.207Z,91.05
2018-02-11T12:20:49.513Z,90.99
2018-02-11T12:23:17.857Z,91.23
2018-02-11T12:25:47.011Z,91.14
2018-02-11T12:28:15.349Z,91.24
2018-02-11T12:30:43.657Z,90.87
2018-02-11T12:33:11.997Z,90.75
2018-02-11T12:35:40.477Z,90.55
2018-02-11T12:38:08.816Z,90.84
2018-02-11T12:40:37.229Z,90.80
2018-02-11T12:43:05.573Z,90.62
2018-02-11T12:45:33.914Z,90.39
2018-02-11T12:48:02.234Z,90.93
2018-02-11T12:50:30.626Z,90.53
2018-02-11T12:52:58.999Z,90.36
2018-02-11T12:55:27.372Z,90.04
2018-02-11T12:57:55.697Z,90.08
2018-02-11T13:00:24.146Z,89.75
2018-02-11T13:02:52.457Z,89.54
2018-02-11T13:05:20.793Z,89.49
2018-02-11T13:07:49.109Z,88.96
2018-02-11T13:10:17.470Z,88.66
2018-02-11T13:12:45.883Z,89.48
2018-02-11T13:15:14.988Z,90.18
2018-02-11T13:17:43.340Z,90.98
2018-02-11T13:20:11.769Z,91.56
2018-02-11T13:22:40.080Z,92.09
2018-02-11T13:25:08.434Z,92.77
2018-02-11T13:27:36.757Z,93.19
2018-02-11T13:30:05.120Z,93.73
2018-02-11T13:32:33.434Z,94.55
2018-02-11T13:35:02.566Z,94.93
2018-02-11T13:37:30.912Z,94.65
2018-02-11T13:39:59.228Z,93.86
2018-02-11T13:42:27.674Z,93.59
2018-02-11T13:44:55.980Z,94.11
2018-02-11T13:47:24.322Z,94.51
2018-02-11T13:49:58.113Z,94.99
2018-02-11T13:52:26.753Z,95.42
2018-02-11T13:54:55.053Z,96.05
2018-02-11T13:57:23.569Z,96.22
2018-02-11T13:59:51.943Z,95.94
2018-02-11T14:02:20.314Z,95.69
2018-02-11T14:04:48.616Z,95.36
2018-02-11T14:07:16.963Z,95.31
2018-02-11T14:09:45.366Z,95.46
2018-02-11T14:12:13.721Z,95.72
2018-02-11T14:14:42.058Z,95.58
2018-02-11T14:17:10.384Z,95.68
2018-02-11T14:19:38.766Z,96.06
2018-02-11T14:22:07.086Z,96.30
2018-02-11T14:24:35.470Z,96.44
2018-02-11T14:27:04.290Z,95.83
2018-02-11T14:29:32.666Z,95.75
2018-02-11T14:32:00.998Z,95.40
2018-02-11T14:34:29.362Z,94.99
2018-02-11T14:36:57.685Z,95.45
2018-02-11T14:39:26.026Z,95.24
2018-02-11T14:41:54.337Z,94.92
2018-02-11T14:44:22.680Z,95.40
2018-02-11T14:46:50.985Z,95.75
2018-02-11T14:49:20.150Z,95.87
2018-02-11T14:51:48.462Z,95.37
2018-02-11T14:54:16.803Z,95.04
2018-02-11T14:56:45.117Z,95.27
2018-02-11T14:59:13.460Z,95.62
2018-02-11T15:01:41.777Z,95.97
2018-02-11T15:04:10.130Z,96.00
2018-02-11T15:06:38.450Z,95.51
2018-02-11T15:09:06.774Z,95.52
2018-02-11T15:11:35.138Z,95.41
2018-02-11T15:14:03.433Z,95.35
2018-02-11T15:16:31.769Z,95.27
2018-02-11T15:19:00.094Z,94.79
2018-02-11T15:21:28.434Z,94.50
2018-02-11T15:23:56.744Z,93.89
2018-02-11T15:26:25.077Z,93.34
2018-02-11T15:28:53.412Z,93.16
2018-02-11T15:31:21.816Z,92.40
2018-02-11T15:33:50.114Z,91.67
2018-02-11T16:59:52.994Z,91.44
2018-02-11T17:09:10.290Z,72.86
2018-02-11T17:11:39.856Z,79.88
2018-02-11T17:14:08.265Z,84.59
2018-02-11T17:16:36.620Z,87.14
2018-02-11T17:19:04.994Z,89.04
2018-02-11T17:21:33.408Z,89.62
2018-02-11T17:24:01.725Z,90.35
2018-02-11T17:26:30.428Z,91.17
2018-02-11T17:28:58.759Z,91.19
2018-02-11T17:31:27.153Z,91.15
2018-02-11T17:33:55.593Z,91.13
2018-02-11T17:36:23.933Z,91.26
2018-02-11T17:38:52.249Z,91.17
2018-02-11T17:41:20.625Z,90.75
2018-02-11T17:43:49.033Z,89.76
2018-02-11T17:46:17.369Z,89.16
2018-02-11T17:48:45.685Z,88.71
2018-02-11T17:51:14.892Z,88.12
2018-02-11T17:53:43.214Z,88.13
2018-02-11T17:56:11.565Z,87.83
2018-02-11T17:58:39.923Z,87.56
2018-02-11T18:01:08.249Z,87.82
2018-02-11T18:03:36.585Z,87.95
2018-02-11T18:06:05.989Z,87.70
2018-02-11T18:08:34.351Z,87.83
2018-02-11T18:11:02.697Z,88.12
2018-02-11T18:13:31.019Z,88.27
2018-02-11T18:16:00.346Z,88.34
2018-02-11T18:18:28.691Z,88.28
2018-02-11T18:20:56.982Z,88.25
2018-02-11T18:23:25.318Z,88.31
2018-02-11T18:25:54.586Z,88.01
2018-02-11T18:28:22.974Z,87.86
2018-02-11T18:30:51.285Z,87.55
2018-02-11T18:33:19.727Z,87.19
2018-02-11T18:35:48.096Z,87.22
2018-02-11T18:38:16.473Z,86.77
2018-02-11T18:40:44.790Z,86.48
2018-02-11T18:43:13.148Z,86.52
2018-02-11T18:45:41.511Z,86.67
2018-02-11T18:48:09.847Z,86.88
2018-02-11T18:50:38.174Z,87.01
2018-02-11T18:53:06.533Z,87.29
2018-02-11T18:55:34.926Z,87.23
2018-02-11T18:58:03.278Z,87.17
2018-02-11T19:00:31.593Z,86.95
2018-02-11T19:02:59.924Z,86.77
2018-02-11T19:05:28.253Z,87.08
2018-02-11T19:07:56.630Z,86.79
2018-02-11T19:10:25.169Z,87.08
2018-02-11T19:12:53.486Z,87.18
2018-02-11T19:15:21.830Z,87.64
2018-02-11T19:17:50.161Z,87.82
2018-02-11T19:20:18.538Z,87.52
2018-02-11T19:22:46.954Z,87.32
2018-02-11T19:25:15.336Z,87.36
2018-02-11T19:27:43.708Z,87.19
2018-02-11T19:30:12.214Z,87.41
2018-02-11T19:32:40.537Z,87.39
2018-02-11T19:35:08.949Z,87.08
2018-02-11T19:37:37.373Z,86.82
2018-02-11T19:40:05.812Z,87.76
2018-02-11T19:42:34.132Z,87.93
2018-02-11T19:45:02.919Z,88.66
2018-02-11T19:47:31.751Z,89.87
2018-02-11T19:50:00.645Z,90.32
2018-02-11T19:52:29.482Z,90.90
2018-02-11T19:54:58.355Z,91.54
2018-02-11T19:57:27.145Z,91.90
2018-02-11T19:59:56.353Z,91.99
2018-02-11T20:02:25.126Z,92.22
2018-02-11T20:04:53.927Z,92.42
2018-02-11T20:07:22.713Z,93.04
2018-02-11T20:09:51.500Z,93.38
2018-02-11T20:12:21.209Z,93.64
2018-02-11T20:14:49.995Z,94.13
2018-02-11T20:17:18.884Z,94.35
2018-02-11T20:19:47.367Z,94.40
2018-02-11T20:22:16.049Z,94.55
2018-02-11T20:24:44.788Z,94.59
2018-02-11T20:27:13.758Z,94.44
2018-02-11T20:29:42.511Z,94.59
2018-02-11T20:32:11.298Z,94.93
2018-02-11T20:34:40.494Z,94.99
2018-02-11T20:37:09.076Z,95.05
2018-02-11T20:39:37.760Z,95.14
2018-02-11T20:42:06.547Z,95.14
2018-02-11T20:44:35.333Z,94.98
2018-02-11T20:47:03.845Z,95.40
2018-02-11T20:49:32.161Z,95.67
2018-02-11T20:52:00.522Z,95.74
2018-02-11T20:54:28.885Z,95.46
2018-02-11T20:56:57.261Z,95.27
2018-02-11T20:59:25.646Z,94.97
2018-02-11T21:01:54.022Z,94.69
2018-02-11T21:04:22.398Z,94.64
2018-02-11T21:06:50.742Z,94.51
2018-02-11T21:09:19.048Z,94.50
2018-02-11T21:11:47.432Z,94.11
2018-02-11T21:14:15.757Z,93.73
2018-02-11T21:16:44.074Z,93.70
2018-02-11T21:19:12.437Z,93.61
2018-02-11T21:21:41.065Z,93.53
2018-02-11T21:24:09.475Z,93.24
2018-02-11T21:26:38.904Z,93.43
2018-02-11T21:29:08.532Z,93.40
2018-02-11T21:31:37.266Z,93.28
2018-02-11T21:34:06.051Z,93.42
2018-02-11T21:36:35.557Z,93.25
2018-02-11T21:39:04.131Z,93.11
2018-02-11T21:41:32.924Z,92.93
2018-02-11T21:44:01.529Z,92.82
2018-02-11T21:46:30.141Z,92.65
2018-02-11T21:48:58.618Z,92.83
2018-02-11T21:51:27.356Z,92.87
2018-02-11T21:53:56.149Z,92.63
2018-02-11T21:56:24.714Z,92.74
2018-02-11T21:58:53.061Z,92.81
2018-02-11T22:01:21.381Z,93.01
2018-02-11T22:03:49.712Z,92.73
2018-02-11T22:06:18.065Z,92.43
2018-02-11T22:08:46.401Z,92.24
2018-02-11T22:11:14.705Z,92.20
2018-02-11T22:13:43.101Z,92.21
2018-02-11T22:16:11.474Z,92.26
2018-02-11T22:18:39.789Z,92.46
2018-02-11T22:21:08.133Z,92.30
2018-02-11T22:23:36.514Z,92.05
2018-02-11T22:26:04.841Z,92.11
2018-02-11T22:28:33.165Z,92.17
2018-02-11T22:31:01.492Z,91.88
2018-02-11T22:33:29.867Z,91.51
2018-02-11T22:35:58.181Z,91.70
2018-02-11T22:38:26.564Z,91.78
2018-02-11T22:40:54.905Z,91.74
2018-02-11T22:43:23.212Z,91.81
2018-02-11T22:45:51.546Z,91.85
2018-02-11T22:48:19.849Z,91.92
2018-02-11T22:50:48.241Z,91.81
2018-02-11T22:53:16.575Z,91.67
2018-02-11T22:55:44.900Z,91.77
2018-02-11T22:58:13.214Z,91.73
2018-02-11T23:00:41.521Z,91.53
2018-02-11T23:03:09.853Z,91.34
2018-02-11T23:05:38.162Z,91.46
2018-02-11T23:08:06.491Z,91.55
2018-02-11T23:10:34.797Z,91.32
2018-02-11T23:13:03.285Z,90.96
2018-02-11T23:15:31.605Z,90.74
2018-02-11T23:17:59.985Z,90.52
2018-02-11T23:20:28.414Z,90.23
2018-02-11T23:22:56.692Z,90.40
2018-02-11T23:25:25.004Z,90.35
2018-02-11T23:27:53.380Z,89.93
2018-02-11T23:30:21.769Z,90.12
2018-02-11T23:32:50.093Z,90.09
2018-02-11T23:35:18.405Z,90.14
2018-02-11T23:37:46.741Z,90.16
2018-02-11T23:40:15.045Z,90.45
2018-02-11T23:42:43.444Z,90.44
2018-02-11T23:45:11.821Z,90.44
2018-02-11T23:47:40.207Z,90.42
2018-02-11T23:50:08.583Z,90.38
2018-02-11T23:52:36.889Z,90.64
2018-02-11T23:55:05.218Z,90.59
2018-02-11T23:57:33.544Z,90.53
